Andres Arango

Olheiro-Chefe - Caracas
4 Abr 2027
Domingo
Processo

Personalidade

Adaptabilidade (9) Ambição (18) Controvérsia (1) Lealdade (8) Pressão (11) Profissionalismo (5) Espírito Esportivo (6) Temperamento (16)

Perfil

Estilo de Treinamento Democrático
Licença Continental B
Determinação 12
Gestão de Pessoas 7
Motivação 7
Disciplina 6
Satisfação no Trabalho
67%
Fadiga
0%
Função Olheiro-Chefe
Salário 30.1K p/s
Contrato 14.03.2028

Desempenho

Comportamento Bom
Eficácia do Treinamento
30%
Desenvolvimento do Jogador
60%
Prevenção de Lesões
55%
Implementação Tática
60%

Eventos Recentes

Avaliou um jogador agora
Participou de uma reunião de recrutamento agora
Recomendou um alvo de transferência agora
Avaliou um jogador agora
Avaliou um jogador agora
Avaliou um jogador agora
Avaliou um jogador 7d atrás
Avaliou um jogador 7d atrás

Monitorando agora

152
Jogador Clube Status Habilidade Confiança Observado Última observação Último voto
Chris Rigg Sunderland Ativo 125 / 149 40% 6 03.04.2027 -
Jaygo van Ommeren Utrecht Ativo 100 / 117 40% 3 03.04.2027 -
Lucas Jetten Cambuur Ativo 118 / 128 40% 2 01.04.2027 -
Martim Cunha Porto Ativo 96 / 119 40% 1 31.03.2027 -
Surprise Manthosi Polokwane City Ativo 89 / 87 40% 1 31.03.2027 -
Alpha Touré FC Metz Ativo 113 / 115 40% 2 30.03.2027 -
Daniel Banjaqui Benfica Ativo 118 / 122 40% 1 30.03.2027 -
Eduardo Felicíssimo Sporting CP Ativo 110 / 101 40% 1 30.03.2027 -
Vinícius Lira Santos Ativo 109 / 127 40% 4 29.03.2027 -
Rhys Chadwick Peterborough United Ativo 96 / 93 40% 1 29.03.2027 -
Davinchi Getafe Ativo 110 / 138 40% 2 26.03.2027 -
Fuzy Taylor Medeama Ativo 71 / 85 40% 1 26.03.2027 -
Salvador Blopá Sporting CP Ativo 109 / 135 40% 1 25.03.2027 -
Juan Manuel Villalba Tigre Ativo 114 / 119 40% 1 25.03.2027 -
Honest Ahanor Atalanta Ativo 132 / 134 40% 1 25.03.2027 -
Riyad Idrissi Cagliari Ativo 117 / 136 40% 2 24.03.2027 -
Adam Aznou Everton Ativo 126 / 132 40% 1 24.03.2027 -
Maldini Kacurri Grimsby Town Ativo 96 / 91 40% 1 24.03.2027 -
Leandro Martins Benfica Ativo 95 / 105 40% 2 23.03.2027 -
Lennon Miller Udinese Ativo 139 / 140 40% 1 23.03.2027 -
Alexis Fretes Libertad Ativo 112 / 103 40% 1 23.03.2027 -
Harrison Armstrong Everton Ativo 133 / 129 40% 1 21.03.2027 -
Mats Egbring Heerenveen Ativo 94 / 91 40% 1 21.03.2027 -
Artem Nosachev Spartak Moscow Ativo 71 / 72 40% 1 20.03.2027 -
Thiago Helguera Braga Ativo 110 / 126 40% 2 19.03.2027 -
Obed Vargas Atlético Madrid Ativo 117 / 132 40% 3 19.03.2027 -
Davide Bartesaghi AC Milan Ativo 135 / 148 40% 1 19.03.2027 -
Gonçalo Oliveira Benfica Ativo 114 / 119 40% 1 17.03.2027 -
Teo Rodríguez Pagano San Lorenzo Ativo 117 / 130 40% 1 17.03.2027 -
Konta Ismaily Ativo 88 / 91 40% 1 17.03.2027 -
Bohdan Budko AZ Ativo 112 / 125 40% 2 16.03.2027 -
Joseph Jones Kryvbas Ativo 86 / 87 40% 1 16.03.2027 -
Matías Pandiella Ludogorets Ativo 83 / 92 40% 2 15.03.2027 -
Bernardo Lima Porto Ativo 93 / 111 40% 2 15.03.2027 -
Moncef Zekri Sporting CP Ativo 98 / 108 40% 1 12.03.2027 -
Miguel Figueiredo Benfica Ativo 105 / 124 40% 1 12.03.2027 -
Tiago Freitas Benfica Ativo 103 / 108 40% 1 09.03.2027 -
Karim Coulibaly RC Strasbourg Ativo 113 / 123 40% 1 08.03.2027 -
Dmitry Pestryakov Dinamo Moscow Ativo 120 / 132 40% 1 08.03.2027 -
Francis Appiah WAFA Ativo 56 / 82 40% 1 07.03.2027 -
Stanislav Bukatov Salyut Ativo 70 / 72 40% 1 07.03.2027 -
Kyrylo Dihtiar Metalist Ativo 102 / 121 40% 1 05.03.2027 -
Raymond Agyemang Aduana Stars Ativo 86 / 72 40% 1 05.03.2027 -
Juan Pablo De la Reta Maipú Ativo 115 / 118 40% 1 03.03.2027 -
Alessio Insignito Spezia Ativo 102 / 116 40% 1 03.03.2027 -
Carlos Lujano Zamora Ativo 104 / 108 72% 1 14.12.2026 Aprovar
Agustín Araujo Trujillanos Rejeitado 101 / 115 72% 1 02.12.2026 -
Juan Cejas Ethnikos Achnas Ativo 104 / 99 40% 2 01.12.2026 -
Rivaldo Ngcobo Free State Stars Ativo 98 / 117 40% 7 01.12.2026 -
Qara Ozobic Inter Ativo 113 / 93 40% 2 01.12.2026 -
Marcelo Torres Gimnasia La Plata Perdido 126 / 109 40% 9 29.11.2026 -
Brian Blando Agropecuario Argentino Ativo 112 / 101 40% 2 29.11.2026 -
Mohamed Konaté Akhmat Grozny Ativo 113 / 129 40% 2 26.11.2026 -
Vladislav Sarveli Nizhniy Novgorod Ativo 107 / 104 40% 1 26.11.2026 -
Ivo Costantino Danubio Ativo 113 / 113 40% 3 25.11.2026 -
Eren Aydın Zira Ativo 103 / 121 40% 3 25.11.2026 -
Gilson Benchimol Akron Ativo 108 / 96 40% 1 25.11.2026 -
Jurica Poldrugač Rudes Ativo 103 / 101 40% 1 25.11.2026 -
Chinedu Geoffrey Krylya Sovetov Ativo 122 / 120 40% 1 25.11.2026 -
Denis Rubanov Dinamo Stavropol Ativo 83 / 86 40% 1 25.11.2026 -
Denys Rezepov Nyva Ativo 92 / 107 40% 1 24.11.2026 -
Rodin Quiñónes Dinamo Batumi Ativo 109 / 121 40% 11 23.11.2026 -
Miro Dinamo Makhachkala Ativo 106 / 98 40% 2 23.11.2026 -
Egor Bogomolskiy Zira Ativo 95 / 84 40% 2 23.11.2026 -
Migran Ageyan Ufa Ativo 99 / 103 40% 1 22.11.2026 -
Piotr Samiec-Talar Slask Ativo 104 / 123 40% 1 22.11.2026 -
Cavid Madatov Khazar Ativo 87 / 97 40% 1 21.11.2026 -
Stephen Humphrys Bradford City Rejeitado 115 / 120 40% 5 19.11.2026 -
Pavel Meleshin Sochi Ativo 108 / 110 40% 1 19.11.2026 -
Dardan Shabanhaxhaj Rubin Rejeitado 116 / 119 40% 1 18.11.2026 Mais informações
Dmitry Tsypchenko Torpedo Moscow Ativo 100 / 98 40% 1 15.11.2026 -
Vladimir Khubulov Dinamo Makhachkala Ativo 104 / 107 40% 1 15.11.2026 -
Martin Sekulić Ural Ativo 108 / 98 40% 3 11.11.2026 -
Claudio Salto Almagro Ativo 106 / 113 40% 3 11.11.2026 -
Tomás Romero Unión de Santa Fe Ativo 98 / 103 40% 1 11.11.2026 -
Andrés Molinas Omonoia Ativo 100 / 102 40% 1 11.11.2026 -
Ricardo Solbes Unión de Santa Fe Ativo 100 / 104 40% 1 10.11.2026 -
Lewis McCann Fleetwood Town Ativo 100 / 95 40% 1 10.11.2026 -
Archil Kakabadze Tskhinvali Rejeitado 114 / 99 40% 2 08.11.2026 -
Marcos Cuenca Zaragoza Ativo 112 / 101 40% 2 08.11.2026 -
Daniil Konoplev Dinamo Bryansk Ativo 76 / 73 40% 1 08.11.2026 -
Dominik Kocsis Debrecen Ativo 104 / 106 40% 1 08.11.2026 -
Ignacio Sabatini Gimnasia y Esgrima Ativo 102 / 107 40% 4 07.11.2026 -
David Barbona Defensa y Justicia Perdido 117 / 126 40% 5 04.11.2026 -
Redon Xhixha Tirana Ativo 104 / 94 40% 1 04.11.2026 -
Stanislav Biblyk Chaika Ativo 87 / 93 40% 1 04.11.2026 -
Edarlyn Reyes Arsenal Tula Ativo 110 / 121 40% 1 30.10.2026 -
Isaac Matondo Koper Ativo 102 / 100 40% 2 29.10.2026 -
Gonzalo Córdoba Lokomotivi Ativo 109 / 100 40% 2 29.10.2026 -
Peter Thiong'o Kakamega Homeboyz Ativo 76 / 78 40% 1 28.10.2026 -
Sam Nombe Milton Keynes Dons Ativo 108 / 122 40% 6 25.10.2026 -
Genaro Rossi San Martín SJ Ativo 102 / 110 40% 3 24.10.2026 -
Jack Vale Alcione Milano Ativo 99 / 98 40% 1 24.10.2026 -
Rodrigo Villalba Libertad Ativo 95 / 98 40% 1 23.10.2026 -
Jefferson Palacios Ermis Ativo 85 / 85 40% 1 23.10.2026 -
Alejandro Samudio Nacional Ativo 105 / 96 40% 5 17.10.2026 -
Maximiliano Gómez Nacional Ativo 126 / 119 40% 1 17.10.2026 -
Ercan Kara Rapid Wien Ativo 120 / 115 40% 2 14.10.2026 -
Javier Martínez Almirante Brown Ativo 106 / 116 40% 1 14.10.2026 -
Matías Romero Nueva Chicago Ativo 103 / 100 40% 1 12.10.2026 -
Manprit Sarkaria Austria Wien Ativo 106 / 114 40% 1 12.10.2026 -
Vyacheslav Grulev Nizhniy Novgorod Ativo 104 / 121 40% 1 10.10.2026 -
Indrit Tuci Olimpija Ljubljana Ativo 117 / 102 40% 1 09.10.2026 -
Armandas Kučys NK Celje Ativo 116 / 123 40% 1 08.10.2026 -
Eric Ramírez Carabobo Ativo 109 / 103 40% 3 07.10.2026 -
Adalberto Peñaranda Deportivo Tachira Ativo 116 / 105 40% 2 07.10.2026 -
Jonathan Cañete Portuguesa Ativo 108 / 111 40% 4 06.10.2026 -
François Kamano Sochi Ativo 112 / 110 40% 1 06.10.2026 -
Francisco Galván Deportivo Municipal Ativo 105 / 111 40% 4 05.10.2026 -
Bruno Damiani Philadelphia Union Ativo 109 / 104 40% 1 05.10.2026 -
Alexandr Yushin Torpedo Moscow Ativo 101 / 112 40% 3 04.10.2026 -
Yegor Kortsov Dinamo Brest Ativo 101 / 112 40% 1 01.10.2026 -
José Balza Deportivo Tachira Ativo 111 / 95 40% 1 29.09.2026 -
Mahir Abdullayev AZAL Ativo 98 / 115 40% 1 29.09.2026 -
Makabi Lilepo Kaizer Chiefs Ativo 99 / 110 40% 3 27.09.2026 -
Steven Nsimba Universitatea Craiova Ativo 120 / 122 40% 2 22.09.2026 -
Jay-Roy Grot OB Ativo 117 / 113 40% 1 22.09.2026 -
Lucas González Nacional Ativo 101 / 118 40% 3 19.09.2026 -
Fernand Gouré Westerlo Ativo 115 / 120 40% 1 16.09.2026 -
Davit Volkovi Zira Ativo 110 / 104 40% 1 16.09.2026 -
Tenton Yenne Baltika Ativo 102 / 122 40% 1 16.09.2026 -
Richard Celis Zamora Ativo 116 / 112 40% 2 13.09.2026 -
Albin Andersson Falkenberg Ativo 98 / 102 40% 1 12.09.2026 -
Mario González Noah Ativo 121 / 105 40% 2 11.09.2026 -
Luka Zahovič NK Maribor Ativo 102 / 120 40% 1 09.09.2026 -
Matija Malekinušić Novi Pazar Ativo 96 / 107 40% 1 09.09.2026 -
Romano Postema Viking Ativo 118 / 96 40% 1 07.09.2026 -
Ľubomír Tupta Neftchi Ativo 100 / 97 40% 1 07.09.2026 -
Enzo Cabrera AE Kition Ativo 100 / 105 40% 2 06.09.2026 -
Brayan León Mamelodi Sundowns Ativo 105 / 127 40% 2 05.09.2026 -
Kristian Eriksen Molde Ativo 132 / 138 40% 1 05.09.2026 -
Dario Vizinger NK Maribor Ativo 101 / 105 40% 2 01.09.2026 -
Musa Qurbanlı Qarabag Ativo 105 / 96 40% 1 31.08.2026 -
Rüstəm Əhmədzadə Sumgayit Ativo 109 / 100 40% 1 30.08.2026 -
Shota Shekiladze Dila Ativo 114 / 94 40% 1 29.08.2026 -
Rodrigo Pollero Deportivo Tachira Ativo 107 / 111 40% 1 28.08.2026 -
Cristian Núñez Huracán Ativo 116 / 123 40% 2 26.08.2026 -
Valentin Costache Noah Ativo 108 / 118 40% 1 26.08.2026 -
César Magallan Estudiantes de Merida Ativo 109 / 96 40% 1 24.08.2026 -
Ousmane Diawara Altach Ativo 98 / 109 40% 1 23.08.2026 -
Enzo Larrosa Independiente Medellin Ativo 100 / 105 40% 1 22.08.2026 -
Pedro Marques Apollon Ativo 103 / 116 40% 1 22.08.2026 -
Ramiro Ruiz Rodríguez Atlético Tucumán Ativo 114 / 123 40% 2 21.08.2026 -
Gonçalo Gregório Noah Ativo 118 / 106 40% 1 16.08.2026 -
Alen Ožbolt Apollon Ativo 105 / 124 40% 1 14.08.2026 -
Taofeek Ismaheel Qarabag Ativo 111 / 117 40% 1 10.08.2026 -
Ibrahim Aliyu Houston Dynamo Ativo 110 / 110 40% 1 09.08.2026 -
Marin Jakoliš Noah Ativo 113 / 94 40% 1 08.08.2026 -
Alejandro Cantero Huesca Ativo 107 / 113 40% 1 02.08.2026 -
Hugo Cuypers Monterrey Ativo 123 / 125 40% 1 01.08.2026 -
Martín Garnerone Estudiantes Ativo 120 / 105 40% 1 01.08.2026 -
Lucas Varaldo Central Córdoba SdE Ativo 111 / 113 40% 1 01.08.2026 -